Baltic Frost — 9HA2868 — position and weather

sailwx.info

Track history (hours):
 
Tides and Currents Weather Stations Pressure Air Temp Water Temp Dewpoint Dewpoint Depression Visibility Wind Speed Wind Dir Waves Ship Positions

Baltic Frost

Last reported at 2014-Oct-23 18:24 UTC. Time now 2014-Oct-23 18:40 UTC.
Position N 49°28' E 000°33'.

Length 182 m; draft 6.4 m.

Type: Ship. MMSI: 256495000.

Date/timePositionNaut miles runAvg speedWind from/ knotsBaromVisibWave heightAir tempDewpointWater temp
2014-Oct-23 18:24N 49°28' E 000°33'0 0.0
2014-Oct-23 17:29N 49°28' E 000°33'0 0.0
2014-Oct-23 16:26N 49°28' E 000°33'0 0.0
2014-Oct-23 15:25N 49°28' E 000°33'0 0.0
2014-Oct-23 14:19N 49°28' E 000°33'0 0.0
2014-Oct-23 13:25N 49°28' E 000°33'0 0.0
2014-Oct-23 12:30N 49°28' E 000°33'0 0.0
2014-Oct-23 11:15N 49°28' E 000°33'0 0.0
2014-Oct-23 10:26N 49°28' E 000°33'0 0.0
2014-Oct-23 09:23N 49°28' E 000°33'0 0.0
2014-Oct-23 08:28N 49°28' E 000°33'0 0.0
2014-Oct-23 07:28N 49°28' E 000°33'0 0.0
2014-Oct-23 06:22N 49°28' E 000°33'0 0.0
2014-Oct-23 05:33N 49°28' E 000°33'0 0.0
2014-Oct-23 04:27N 49°28' E 000°33'0 0.0
2014-Oct-23 03:32N 49°28' E 000°33'0 0.0
2014-Oct-23 02:32N 49°28' E 000°33'0 0.0
2014-Oct-23 01:31N 49°28' E 000°33'0 0.0
2014-Oct-23 00:31N 49°28' E 000°33'0 0.0
2014-Oct-22 23:33N 49°28' E 000°33'0 0.0
2014-Oct-22 22:33N 49°28' E 000°33'0 0.4
2014-Oct-22 21:33N 49°28' E 000°32'1010.1
2014-Oct-22 20:33N 49°26' E 000°17'1212.1
2014-Oct-22 19:33N 49°28' W 000°01'4 4.0
2014-Oct-22 18:33N 49°28' W 000°07'0 0.0
2014-Oct-22 17:33N 49°28' W 000°07'0 0.0
2014-Oct-22 16:32N 49°28' W 000°07'0 0.0
2014-Oct-22 15:32N 49°28' W 000°07'0 0.1
2014-Oct-22 14:32N 49°28' W 000°08'0 0.0
2014-Oct-22 13:31N 49°28' W 000°08'0 0.0
2014-Oct-22 12:31N 49°28' W 000°08'0 0.0
2014-Oct-22 11:33N 49°28' W 000°07'0 0.0
2014-Oct-22 10:33N 49°28' W 000°07'0 0.0
2014-Oct-22 09:29N 49°28' W 000°07'0 0.0
2014-Oct-22 08:34N 49°28' W 000°07'1 1.3
2014-Oct-22 07:33N 49°29' W 000°08'8 7.8
2014-Oct-22 06:33N 49°37' W 000°11'1311.4
2014-Oct-22 05:27N 49°50' W 000°10'85 9.6
2014-Oct-21 20:33N 50°57' E 001°12'1111.2
2014-Oct-21 19:33N 51°04' E 001°26'1312.8
2014-Oct-21 18:33N 51°12' E 001°42'1312.7
2014-Oct-21 17:33N 51°22' E 001°53'1111.2
2014-Oct-21 16:34N 51°31' E 002°04'1110.6
2014-Oct-21 15:33N 51°39' E 002°15'1110.2
2014-Oct-21 14:27N 51°48' E 002°27'9 8.8
2014-Oct-21 13:27N 51°53' E 002°39'7 6.7
2014-Oct-21 12:26N 51°51' E 002°49'8 9.1
2014-Oct-21 11:33N 51°48' E 003°01'2 1.7
2014-Oct-21 10:32N 51°46' E 003°03'136 9.4
2014-Oct-20 20:08N 53°56' E 004°09'8911.2
2014-Oct-20 12:13N 55°07' E 005°39'1911.3
2014-Oct-20 10:33N 55°23' E 005°57'1111.5
2014-Oct-20 09:33N 55°33' E 006°09'1211.6
2014-Oct-20 08:33N 55°42' E 006°21'1111.1
2014-Oct-20 07:33N 55°51' E 006°32'1010.3
2014-Oct-20 06:33N 55°60' E 006°43'9 9.3
2014-Oct-20 05:33N 56°07' E 006°53'8 8.1
2014-Oct-20 04:33N 56°14' E 007°01'8 7.9
2014-Oct-20 03:33N 56°20' E 007°10'8 7.7
2014-Oct-20 02:33N 56°26' E 007°17'8 7.7
2014-Oct-20 01:33N 56°33' E 007°26'7 7.4
2014-Oct-20 00:33N 56°39' E 007°33'53 7.6
2014-Oct-19 17:30N 57°23' E 008°29'57 9.2
2014-Oct-19 11:18N 57°48' E 010°04'810.2
2014-Oct-19 10:33N 57°49' E 010°18'9 9.4
2014-Oct-19 09:33N 57°49' E 010°36'9 8.6
2014-Oct-19 08:33N 57°46' E 010°51'1110.7
2014-Oct-19 07:33N 57°38' E 011°05'1312.7
2014-Oct-19 06:33N 57°30' E 011°23'1211.9
2014-Oct-19 05:34N 57°19' E 011°32'1110.7
2014-Oct-19 04:34N 57°09' E 011°38'1010.2
2014-Oct-19 03:33N 56°59' E 011°45'1010.1
2014-Oct-19 02:33N 56°50' E 011°51'1010.1
2014-Oct-19 01:33N 56°40' E 011°56'1010.0
2014-Oct-19 00:31N 56°30' E 012°00'1010.0
2014-Oct-18 23:33N 56°21' E 012°04'10 9.5
2014-Oct-18 22:34N 56°14' E 012°16'1010.3
2014-Oct-18 21:33N 56°08' E 012°31'1212.0
2014-Oct-18 20:33N 55°57' E 012°40'1212.1
2014-Oct-18 19:33N 55°45' E 012°41'1312.8
2014-Oct-18 18:33N 55°32' E 012°43'1110.9
2014-Oct-18 17:33N 55°21' E 012°41'1110.5
2014-Oct-18 16:33N 55°16' E 012°57'1211.8
2014-Oct-18 15:33N 55°15' E 013°17'3511.7
2014-Oct-18 12:33N 55°15' E 014°19'1111.0
2014-Oct-18 11:32N 55°24' E 014°32'1313.6
2014-Oct-18 10:33N 55°31' E 014°51'1210.9
2014-Oct-18 09:25N 55°37' E 015°10'1011.1
2014-Oct-18 08:31N 55°40' E 015°27'34310.7
2014-Oct-17 00:31N 59°32' E 023°20'40 6.7
2014-Oct-16 18:32N 59°28' E 024°39'0 0.0
2014-Oct-16 17:31N 59°28' E 024°39'0 0.0
2014-Oct-16 16:19N 59°28' E 024°39'0 0.0
2014-Oct-16 15:33N 59°28' E 024°39'0 0.0
2014-Oct-16 14:33N 59°28' E 024°39'0 0.0
2014-Oct-16 13:32N 59°28' E 024°39'0 0.0
2014-Oct-16 12:29N 59°28' E 024°39'0 0.0
2014-Oct-16 11:32N 59°28' E 024°39'0 0.0
2014-Oct-16 10:32N 59°28' E 024°39'0 0.0
2014-Oct-16 09:25N 59°28' E 024°39'0 0.0
2014-Oct-16 08:25N 59°28' E 024°39'0 0.0
2014-Oct-16 07:33N 59°28' E 024°39'0 0.0
2014-Oct-16 06:33N 59°28' E 024°39'0 0.0
2014-Oct-16 05:33N 59°28' E 024°39'0 0.0
2014-Oct-16 04:32N 59°28' E 024°39'0 0.0
2014-Oct-16 03:32N 59°28' E 024°39'0 0.0
2014-Oct-16 02:31N 59°28' E 024°39'0 0.0
2014-Oct-16 01:31N 59°28' E 024°39'0 0.0
2014-Oct-16 00:33N 59°28' E 024°39'0 0.0
2014-Oct-15 23:33N 59°28' E 024°39'0 0.0
2014-Oct-15 22:30N 59°28' E 024°39'0 0.0
2014-Oct-15 21:29N 59°28' E 024°39'0 0.0
2014-Oct-15 20:32N 59°28' E 024°39'0 0.0
2014-Oct-15 19:31N 59°28' E 024°39'0 0.0
2014-Oct-15 18:31N 59°28' E 024°39'0 0.0
2014-Oct-15 17:30N 59°28' E 024°39'0 0.0
2014-Oct-15 16:30N 59°28' E 024°39'0 0.0
2014-Oct-15 15:30N 59°28' E 024°39'0 0.0
2014-Oct-15 14:32N 59°28' E 024°39'0 0.0
2014-Oct-15 13:32N 59°28' E 024°39'0 0.0
2014-Oct-15 12:31N 59°28' E 024°39'0 0.0
2014-Oct-15 11:31N 59°28' E 024°39'0 0.0
2014-Oct-15 10:21N 59°28' E 024°39'0 0.0
2014-Oct-15 09:33N 59°28' E 024°39'0 0.0
2014-Oct-15 08:29N 59°28' E 024°39'0 0.0
2014-Oct-15 07:29N 59°28' E 024°39'0 0.0
2014-Oct-15 06:32N 59°28' E 024°39'0 0.0
2014-Oct-15 05:31N 59°28' E 024°39'0 0.0
2014-Oct-15 04:31N 59°28' E 024°39'0 0.0
2014-Oct-15 03:33N 59°28' E 024°39'0 0.0
2014-Oct-15 02:33N 59°28' E 024°39'0 0.0
2014-Oct-15 01:32N 59°28' E 024°39'0 0.0
2014-Oct-15 00:32N 59°28' E 024°39'0 0.0
2014-Oct-14 23:32N 59°28' E 024°39'0 0.0
2014-Oct-14 22:31N 59°28' E 024°39'0 0.0
2014-Oct-14 21:31N 59°28' E 024°39'0 0.0
2014-Oct-14 20:33N 59°28' E 024°39'0 0.0
2014-Oct-14 19:33N 59°28' E 024°39'0 0.0
2014-Oct-14 18:32N 59°28' E 024°39'0 0.0
2014-Oct-14 17:32N 59°28' E 024°39'0 0.0
2014-Oct-14 16:32N 59°28' E 024°39'0 0.0
2014-Oct-14 15:28N 59°28' E 024°39'0 0.0
2014-Oct-14 14:31N 59°28' E 024°39'0 0.0
2014-Oct-14 13:33N 59°28' E 024°39'0 0.0
2014-Oct-14 12:27N 59°28' E 024°39'0 0.0
2014-Oct-14 11:32N 59°28' E 024°39'0 0.0
2014-Oct-14 10:32N 59°28' E 024°39'0 0.0
2014-Oct-14 08:31N 59°28' E 024°39'0 0.0
2014-Oct-14 07:22N 59°28' E 024°39'0 0.0
2014-Oct-14 06:33N 59°28' E 024°39'0 0.0
2014-Oct-14 03:29N 59°28' E 024°39'0 0.0
2014-Oct-14 02:32N 59°28' E 024°39'0 0.0
2014-Oct-14 01:31N 59°28' E 024°39'0 0.0
2014-Oct-14 00:31N 59°28' E 024°39'0 0.0
2014-Oct-13 23:25N 59°28' E 024°39'0 0.0
2014-Oct-13 22:33N 59°28' E 024°39'0 0.0
2014-Oct-13 21:32N 59°28' E 024°39'0 0.0
2014-Oct-13 20:23N 59°28' E 024°39'0 0.0
2014-Oct-13 19:22N 59°28' E 024°39'0 0.0
2014-Oct-13 18:31N 59°28' E 024°39'  
Track history (hours):
 
Tides and Currents Weather Stations Pressure Air Temp Water Temp Dewpoint Dewpoint Depression Visibility Wind Speed Wind Dir Waves Ship Positions

Baltic Frost

Last reported at 2014-Oct-23 18:24 UTC. Time now 2014-Oct-23 18:40 UTC.
Position N 49°28' E 000°33'.

Length 182 m; draft 6.4 m.

Type: Ship. MMSI: 256495000.

Date/timePositionNaut miles runAvg speedWind from/ knotsBaromVisibWave heightAir tempDewpointWater temp
2014-Oct-23 18:24N 49°28' E 000°33'0 0.0
2014-Oct-23 17:29N 49°28' E 000°33'0 0.0
2014-Oct-23 16:26N 49°28' E 000°33'0 0.0
2014-Oct-23 15:25N 49°28' E 000°33'0 0.0
2014-Oct-23 14:19N 49°28' E 000°33'0 0.0
2014-Oct-23 13:25N 49°28' E 000°33'0 0.0
2014-Oct-23 12:30N 49°28' E 000°33'0 0.0
2014-Oct-23 11:15N 49°28' E 000°33'0 0.0
2014-Oct-23 10:26N 49°28' E 000°33'0 0.0
2014-Oct-23 09:23N 49°28' E 000°33'0 0.0
2014-Oct-23 08:28N 49°28' E 000°33'0 0.0
2014-Oct-23 07:28N 49°28' E 000°33'0 0.0
2014-Oct-23 06:22N 49°28' E 000°33'0 0.0
2014-Oct-23 05:33N 49°28' E 000°33'0 0.0
2014-Oct-23 04:27N 49°28' E 000°33'0 0.0
2014-Oct-23 03:32N 49°28' E 000°33'0 0.0
2014-Oct-23 02:32N 49°28' E 000°33'0 0.0
2014-Oct-23 01:31N 49°28' E 000°33'0 0.0
2014-Oct-23 00:31N 49°28' E 000°33'0 0.0
2014-Oct-22 23:33N 49°28' E 000°33'0 0.0
2014-Oct-22 22:33N 49°28' E 000°33'0 0.4
2014-Oct-22 21:33N 49°28' E 000°32'1010.1
2014-Oct-22 20:33N 49°26' E 000°17'1212.1
2014-Oct-22 19:33N 49°28' W 000°01'4 4.0
2014-Oct-22 18:33N 49°28' W 000°07'0 0.0
2014-Oct-22 17:33N 49°28' W 000°07'0 0.0
2014-Oct-22 16:32N 49°28' W 000°07'0 0.0
2014-Oct-22 15:32N 49°28' W 000°07'0 0.1
2014-Oct-22 14:32N 49°28' W 000°08'0 0.0
2014-Oct-22 13:31N 49°28' W 000°08'0 0.0
2014-Oct-22 12:31N 49°28' W 000°08'0 0.0
2014-Oct-22 11:33N 49°28' W 000°07'0 0.0
2014-Oct-22 10:33N 49°28' W 000°07'0 0.0
2014-Oct-22 09:29N 49°28' W 000°07'0 0.0
2014-Oct-22 08:34N 49°28' W 000°07'1 1.3
2014-Oct-22 07:33N 49°29' W 000°08'8 7.8
2014-Oct-22 06:33N 49°37' W 000°11'1311.4
2014-Oct-22 05:27N 49°50' W 000°10'85 9.6
2014-Oct-21 20:33N 50°57' E 001°12'1111.2
2014-Oct-21 19:33N 51°04' E 001°26'1312.8
2014-Oct-21 18:33N 51°12' E 001°42'1312.7
2014-Oct-21 17:33N 51°22' E 001°53'1111.2
2014-Oct-21 16:34N 51°31' E 002°04'1110.6
2014-Oct-21 15:33N 51°39' E 002°15'1110.2
2014-Oct-21 14:27N 51°48' E 002°27'9 8.8
2014-Oct-21 13:27N 51°53' E 002°39'7 6.7
2014-Oct-21 12:26N 51°51' E 002°49'8 9.1
2014-Oct-21 11:33N 51°48' E 003°01'2 1.7
2014-Oct-21 10:32N 51°46' E 003°03'136 9.4
2014-Oct-20 20:08N 53°56' E 004°09'8911.2
2014-Oct-20 12:13N 55°07' E 005°39'1911.3
2014-Oct-20 10:33N 55°23' E 005°57'1111.5
2014-Oct-20 09:33N 55°33' E 006°09'1211.6
2014-Oct-20 08:33N 55°42' E 006°21'1111.1
2014-Oct-20 07:33N 55°51' E 006°32'1010.3
2014-Oct-20 06:33N 55°60' E 006°43'9 9.3
2014-Oct-20 05:33N 56°07' E 006°53'8 8.1
2014-Oct-20 04:33N 56°14' E 007°01'8 7.9
2014-Oct-20 03:33N 56°20' E 007°10'8 7.7
2014-Oct-20 02:33N 56°26' E 007°17'8 7.7
2014-Oct-20 01:33N 56°33' E 007°26'7 7.4
2014-Oct-20 00:33N 56°39' E 007°33'53 7.6
2014-Oct-19 17:30N 57°23' E 008°29'57 9.2
2014-Oct-19 11:18N 57°48' E 010°04'810.2
2014-Oct-19 10:33N 57°49' E 010°18'9 9.4
2014-Oct-19 09:33N 57°49' E 010°36'9 8.6
2014-Oct-19 08:33N 57°46' E 010°51'1110.7
2014-Oct-19 07:33N 57°38' E 011°05'1312.7
2014-Oct-19 06:33N 57°30' E 011°23'1211.9
2014-Oct-19 05:34N 57°19' E 011°32'1110.7
2014-Oct-19 04:34N 57°09' E 011°38'1010.2
2014-Oct-19 03:33N 56°59' E 011°45'1010.1
2014-Oct-19 02:33N 56°50' E 011°51'1010.1
2014-Oct-19 01:33N 56°40' E 011°56'1010.0
2014-Oct-19 00:31N 56°30' E 012°00'1010.0
2014-Oct-18 23:33N 56°21' E 012°04'10 9.5
2014-Oct-18 22:34N 56°14' E 012°16'1010.3
2014-Oct-18 21:33N 56°08' E 012°31'1212.0
2014-Oct-18 20:33N 55°57' E 012°40'1212.1
2014-Oct-18 19:33N 55°45' E 012°41'1312.8
2014-Oct-18 18:33N 55°32' E 012°43'1110.9
2014-Oct-18 17:33N 55°21' E 012°41'1110.5
2014-Oct-18 16:33N 55°16' E 012°57'1211.8
2014-Oct-18 15:33N 55°15' E 013°17'3511.7
2014-Oct-18 12:33N 55°15' E 014°19'1111.0
2014-Oct-18 11:32N 55°24' E 014°32'1313.6
2014-Oct-18 10:33N 55°31' E 014°51'1210.9
2014-Oct-18 09:25N 55°37' E 015°10'1011.1
2014-Oct-18 08:31N 55°40' E 015°27'34310.7
2014-Oct-17 00:31N 59°32' E 023°20'40 6.7
2014-Oct-16 18:32N 59°28' E 024°39'0 0.0
2014-Oct-16 17:31N 59°28' E 024°39'0 0.0
2014-Oct-16 16:19N 59°28' E 024°39'0 0.0
2014-Oct-16 15:33N 59°28' E 024°39'0 0.0
2014-Oct-16 14:33N 59°28' E 024°39'0 0.0
2014-Oct-16 13:32N 59°28' E 024°39'0 0.0
2014-Oct-16 12:29N 59°28' E 024°39'0 0.0
2014-Oct-16 11:32N 59°28' E 024°39'0 0.0
2014-Oct-16 10:32N 59°28' E 024°39'0 0.0
2014-Oct-16 09:25N 59°28' E 024°39'0 0.0
2014-Oct-16 08:25N 59°28' E 024°39'0 0.0
2014-Oct-16 07:33N 59°28' E 024°39'0 0.0
2014-Oct-16 06:33N 59°28' E 024°39'0 0.0
2014-Oct-16 05:33N 59°28' E 024°39'0 0.0
2014-Oct-16 04:32N 59°28' E 024°39'0 0.0
2014-Oct-16 03:32N 59°28' E 024°39'0 0.0
2014-Oct-16 02:31N 59°28' E 024°39'0 0.0
2014-Oct-16 01:31N 59°28' E 024°39'0 0.0
2014-Oct-16 00:33N 59°28' E 024°39'0 0.0
2014-Oct-15 23:33N 59°28' E 024°39'0 0.0
2014-Oct-15 22:30N 59°28' E 024°39'0 0.0
2014-Oct-15 21:29N 59°28' E 024°39'0 0.0
2014-Oct-15 20:32N 59°28' E 024°39'0 0.0
2014-Oct-15 19:31N 59°28' E 024°39'0 0.0
2014-Oct-15 18:31N 59°28' E 024°39'0 0.0
2014-Oct-15 17:30N 59°28' E 024°39'0 0.0
2014-Oct-15 16:30N 59°28' E 024°39'0 0.0
2014-Oct-15 15:30N 59°28' E 024°39'0 0.0
2014-Oct-15 14:32N 59°28' E 024°39'0 0.0
2014-Oct-15 13:32N 59°28' E 024°39'0 0.0
2014-Oct-15 12:31N 59°28' E 024°39'0 0.0
2014-Oct-15 11:31N 59°28' E 024°39'0 0.0
2014-Oct-15 10:21N 59°28' E 024°39'0 0.0
2014-Oct-15 09:33N 59°28' E 024°39'0 0.0
2014-Oct-15 08:29N 59°28' E 024°39'0 0.0
2014-Oct-15 07:29N 59°28' E 024°39'0 0.0
2014-Oct-15 06:32N 59°28' E 024°39'0 0.0
2014-Oct-15 05:31N 59°28' E 024°39'0 0.0
2014-Oct-15 04:31N 59°28' E 024°39'0 0.0
2014-Oct-15 03:33N 59°28' E 024°39'0 0.0
2014-Oct-15 02:33N 59°28' E 024°39'0 0.0
2014-Oct-15 01:32N 59°28' E 024°39'0 0.0
2014-Oct-15 00:32N 59°28' E 024°39'0 0.0
2014-Oct-14 23:32N 59°28' E 024°39'0 0.0
2014-Oct-14 22:31N 59°28' E 024°39'0 0.0
2014-Oct-14 21:31N 59°28' E 024°39'0 0.0
2014-Oct-14 20:33N 59°28' E 024°39'0 0.0
2014-Oct-14 19:33N 59°28' E 024°39'0 0.0
2014-Oct-14 18:32N 59°28' E 024°39'0 0.0
2014-Oct-14 17:32N 59°28' E 024°39'0 0.0
2014-Oct-14 16:32N 59°28' E 024°39'0 0.0
2014-Oct-14 15:28N 59°28' E 024°39'0 0.0
2014-Oct-14 14:31N 59°28' E 024°39'0 0.0
2014-Oct-14 13:33N 59°28' E 024°39'0 0.0
2014-Oct-14 12:27N 59°28' E 024°39'0 0.0
2014-Oct-14 11:32N 59°28' E 024°39'0 0.0
2014-Oct-14 10:32N 59°28' E 024°39'0 0.0
2014-Oct-14 08:31N 59°28' E 024°39'0 0.0
2014-Oct-14 07:22N 59°28' E 024°39'0 0.0
2014-Oct-14 06:33N 59°28' E 024°39'0 0.0
2014-Oct-14 03:29N 59°28' E 024°39'0 0.0
2014-Oct-14 02:32N 59°28' E 024°39'0 0.0
2014-Oct-14 01:31N 59°28' E 024°39'0 0.0
2014-Oct-14 00:31N 59°28' E 024°39'0 0.0
2014-Oct-13 23:25N 59°28' E 024°39'0 0.0
2014-Oct-13 22:33N 59°28' E 024°39'0 0.0
2014-Oct-13 21:32N 59°28' E 024°39'0 0.0
2014-Oct-13 20:23N 59°28' E 024°39'0 0.0
2014-Oct-13 19:22N 59°28' E 024°39'0 0.0
2014-Oct-13 18:31N 59°28' E 024°39'  

Dump ship's entire track history